Airfield :
LOGIN :

Register | Disclaimer

   EN    FR    IT 

 










Legend :    VFR   Marginal VFR   IFR   Intensive IFR   Very Intensive IFR
Visi :
Ceiling :
>= 8 km
>= 3000ft
5 to 8 km
1000 to 3000 ft
1500m to 5 km
500 to 1000 ft
800 to 1500m
200 to 500 ft
< 800m
< 200 ft
Symbols :   Thunderstorms  Fog  Heavy snow  Heavy precipitations  Wind > 20 kt
SIGMETs :     Misc.  Thunderstorms  Icing  Turbulence  Mountain Waves  Volcanic Ashes







- Airport Elevation : 405 ft
- IATA code : ODH


EGVO - RAF Odiham

CURRENT METAR :
  • 141350Z 25012KT 9999 FEW020CB 04/01 Q0990 BLU TEMPO SCT020CB WHT

EXPIRED METARs :
  • 141250Z 25014KT 9999 -SHRA SCT018CB BKN080 05/02 Q0991 WHT TEMPO FEW020 BLU
  • 141150Z 25013KT 9999 FEW015CB SCT026 04/01 Q0991 BLU TEMPO 6000 -SHRA BKN014CB GRN

TAF TAF EGVO
Valid from the 14 at 12:00 until the 15 at 00:00 UTC


141019Z 1412/1424 25014G26KT 9999 SCT030
BECMG 1412/1415 25012KT
PROB40
TEMPO 1412/1418 6000 -SHRA SCT015
PROB30
TEMPO 1412/1418 4000 -SHRASN SCT010CB
TEMPO 1418/1424 4000 SHRA BKN012
No reported NOTAMs for that airfield.
2 SIGMETs reported for the London FIR (EGTT) :
 
Severe turbulence
EGTT SIGMET 04 VALID 141500/141900 EGRR
EGTT LONDON FIR SEV TURB FCST SW OF LINE N5000 W00119 - N5219 W00533 SFC/FL060 STNR WKN=
Severe turbulence
EGTT SIGMET 03 VALID 141100/141500 EGRR
EGTT LONDON FIR SEV TURB FCST SW OF LINE N5000 W00019 - N5153 W00620 SFC/FL060 STNR NC=



MET'MAP, your aeronautical weather chart ! - Copyright ORBIFLY December 2007 - Disclaimer

ORBIFLY MET'MAP TEAM :

Programming & Development : Alexandra Zaïnal
Concept & Development : Baudouin d'Aumeries
Co-Development & Prog : Marc-Olivier Méhu
Technical & hardware support : Manuel Goepfert

Contact : metmap@orbifly.com




SOURCES & CREDITS :

   NOAA